createdAt,value
2022-09-17T00:03:35.736Z,0.9
2022-09-17T00:08:35.908Z,0.9
2022-09-17T00:13:36.031Z,0.9
2022-09-17T00:18:36.280Z,0.9
2022-09-17T00:23:36.439Z,0.9
2022-09-17T00:28:36.610Z,0.9
2022-09-17T00:33:35.560Z,0.9
2022-09-17T00:38:35.813Z,0.9
2022-09-17T00:43:36.054Z,1.1
2022-09-17T00:48:36.103Z,1.1
2022-09-17T00:53:36.182Z,0.9
2022-09-17T00:58:41.022Z,0.9
2022-09-17T01:03:36.042Z,1.3
2022-09-17T01:08:36.278Z,1.3
2022-09-17T01:13:36.398Z,1.3
2022-09-17T01:18:36.484Z,1.3
2022-09-17T01:23:36.639Z,0.9
2022-09-17T01:28:35.798Z,0.9
2022-09-17T01:33:36.006Z,0.9
2022-09-17T01:38:36.339Z,0.9
2022-09-17T01:43:36.390Z,1.3
2022-09-17T01:48:36.607Z,1.3
2022-09-17T01:53:36.118Z,1.3
2022-09-17T01:58:36.514Z,1.3
2022-09-17T02:03:35.986Z,1.3
2022-09-17T02:08:36.193Z,1.3
2022-09-17T02:13:36.302Z,1.3
2022-09-17T02:18:36.558Z,1.3
2022-09-17T02:23:35.928Z,1.3
2022-09-17T02:28:36.140Z,1.3
2022-09-17T02:33:36.438Z,1.3
2022-09-17T02:38:35.826Z,1.3
2022-09-17T02:43:36.097Z,1.3
2022-09-17T02:48:36.648Z,1.3
2022-09-17T02:53:36.227Z,1
2022-09-17T02:58:36.433Z,1
2022-09-17T03:03:36.966Z,0.9
2022-09-17T03:08:36.238Z,0.9
2022-09-17T03:13:35.901Z,1.3
2022-09-17T03:18:36.268Z,1.3
2022-09-17T03:23:36.522Z,1.3
2022-09-17T03:28:36.086Z,1.3
2022-09-17T03:33:36.407Z,0.9
2022-09-17T03:38:36.151Z,0.9
2022-09-17T03:43:35.848Z,1.3
2022-09-17T03:48:36.001Z,1.3
2022-09-17T03:53:36.067Z,1.7
2022-09-17T03:58:36.550Z,1.7
2022-09-17T04:03:35.849Z,1.8
2022-09-17T04:08:36.181Z,1.8
2022-09-17T04:13:36.883Z,1.8
2022-09-17T04:18:36.260Z,1.8
2022-09-17T04:23:36.533Z,2
2022-09-17T04:28:35.859Z,2
2022-09-17T04:33:36.333Z,1.9
2022-09-17T04:38:36.540Z,1.9
2022-09-17T04:43:35.820Z,1.8
2022-09-17T04:48:36.069Z,1.8
2022-09-17T04:53:36.355Z,2.1
2022-09-17T04:58:36.672Z,2.1
2022-09-17T05:03:35.748Z,2.1
2022-09-17T05:08:36.023Z,2.1
2022-09-17T05:13:36.426Z,1.8
2022-09-17T05:18:36.101Z,1.8
2022-09-17T05:23:36.871Z,2.1
2022-09-17T05:28:36.079Z,2.1
2022-09-17T05:33:36.491Z,1.5
2022-09-17T05:38:36.912Z,1.5
2022-09-17T05:43:36.102Z,1.7
2022-09-17T05:48:36.294Z,1.7
2022-09-17T05:53:36.574Z,1.8
2022-09-17T05:58:36.677Z,1.8
2022-09-17T06:03:35.790Z,2.1
2022-09-17T06:08:36.202Z,2.1
2022-09-17T06:13:36.423Z,1.5
2022-09-17T06:18:36.627Z,1.5
2022-09-17T06:23:35.883Z,1.9
2022-09-17T06:28:40.597Z,1.9
2022-09-17T06:33:36.099Z,2
2022-09-17T06:38:36.478Z,2
2022-09-17T06:43:36.784Z,1.8
2022-09-17T06:48:36.074Z,1.8
2022-09-17T06:53:36.479Z,2.4
2022-09-17T06:58:36.902Z,2.4
2022-09-17T07:03:36.213Z,2.6
2022-09-17T07:08:35.944Z,2.6
2022-09-17T07:13:36.303Z,2.2
2022-09-17T07:18:36.786Z,2.2
2022-09-17T07:23:36.682Z,2.1
2022-09-17T07:28:36.789Z,2.1
2022-09-17T07:33:36.105Z,1.9
2022-09-17T07:38:36.393Z,1.9
2022-09-17T07:43:36.741Z,1.8
2022-09-17T07:48:36.092Z,1.8
2022-09-17T07:53:36.356Z,1.8
2022-09-17T07:58:36.533Z,1.8
2022-09-17T08:03:36.821Z,2.1
2022-09-17T08:08:36.084Z,2.1
2022-09-17T08:13:36.372Z,2.2
2022-09-17T08:18:36.676Z,2.2
2022-09-17T08:23:36.047Z,3.5
2022-09-17T08:28:36.176Z,3.5
2022-09-17T08:33:36.400Z,2.7
2022-09-17T08:38:38.248Z,2.7
2022-09-17T08:43:36.809Z,2.9
2022-09-17T08:48:36.199Z,2.9
2022-09-17T08:53:36.869Z,2.5
2022-09-17T08:58:36.160Z,2.5
2022-09-17T09:03:36.619Z,3.2
2022-09-17T09:08:36.916Z,3.2
2022-09-17T09:13:36.466Z,2.9
2022-09-17T09:18:36.623Z,2.9
2022-09-17T09:23:36.085Z,2.6
2022-09-17T09:28:36.576Z,2.6
2022-09-17T09:33:36.808Z,3.9
2022-09-17T09:38:36.155Z,3.9
2022-09-17T09:43:59.539Z,4.5
2022-09-17T09:48:36.400Z,4.5
2022-09-17T09:53:36.876Z,2.8
2022-09-17T09:58:36.162Z,2.8
2022-09-17T10:03:36.502Z,3.5
2022-09-17T10:08:36.801Z,3.5
2022-09-17T10:13:36.301Z,3
2022-09-17T10:18:36.559Z,3
2022-09-17T10:23:36.600Z,2.5
2022-09-17T10:28:36.747Z,2.5
2022-09-17T10:33:36.309Z,3.7
2022-09-17T10:38:36.609Z,3.7
2022-09-17T10:43:36.958Z,3.7
2022-09-17T10:48:36.293Z,3.7
2022-09-17T10:53:36.674Z,3.9
2022-09-17T10:58:41.695Z,3.9
2022-09-17T11:03:36.857Z,4.1
2022-09-17T11:08:36.322Z,4.1
2022-09-17T11:13:36.627Z,3.6
2022-09-17T11:18:36.911Z,3.6
2022-09-17T11:23:36.108Z,3.6
2022-09-17T11:28:36.558Z,3.6
2022-09-17T11:33:36.752Z,3.9
2022-09-17T11:38:37.008Z,3.9
2022-09-17T11:43:36.504Z,3.8
2022-09-17T11:48:36.776Z,3.8
2022-09-17T11:53:37.023Z,2.8
2022-09-17T11:58:36.339Z,2.8
2022-09-17T12:03:36.449Z,3.9
2022-09-17T12:08:36.674Z,3.9
2022-09-17T12:13:36.932Z,3.4
2022-09-17T12:18:36.970Z,3.4
2022-09-17T12:23:36.099Z,2.7
2022-09-17T12:28:36.984Z,2.7
2022-09-17T12:33:36.177Z,2.6
2022-09-17T12:38:36.408Z,2.6
2022-09-17T12:43:36.576Z,3.1
2022-09-17T12:48:36.921Z,3.1
2022-09-17T12:53:37.008Z,2.7
2022-09-17T12:58:36.401Z,2.7
2022-09-17T13:03:36.588Z,2.2
2022-09-17T13:08:36.787Z,2.2
2022-09-17T13:13:36.221Z,3.1
2022-09-17T13:18:36.362Z,3.1
2022-09-17T13:23:36.540Z,2.5
2022-09-17T13:28:36.759Z,2.5
2022-09-17T13:33:36.924Z,2.2
2022-09-17T13:38:36.276Z,2.2
2022-09-17T13:43:36.500Z,2.9
2022-09-17T13:48:36.643Z,2.9
2022-09-17T13:53:36.880Z,2.7
2022-09-17T13:58:37.034Z,2.7
2022-09-17T14:03:36.140Z,3.1
2022-09-17T14:08:36.281Z,3.1
2022-09-17T14:13:36.823Z,1.8
2022-09-17T14:18:36.174Z,1.8
2022-09-17T14:23:36.273Z,1.3
2022-09-17T14:28:36.647Z,1.3
2022-09-17T14:33:36.759Z,2.2
2022-09-17T14:38:37.092Z,2.2
2022-09-17T14:43:36.340Z,1.2
2022-09-17T14:48:36.682Z,1.2
2022-09-17T14:53:36.723Z,0
2022-09-17T14:58:36.173Z,0
2022-09-17T15:03:36.750Z,0.2
2022-09-17T15:08:36.718Z,0.2
2022-09-17T15:13:36.304Z,0.4
2022-09-17T15:18:37.036Z,0.4
2022-09-17T15:23:36.353Z,0.4
2022-09-17T15:28:36.298Z,0.4
2022-09-17T15:33:36.181Z,0.4
2022-09-17T15:38:36.883Z,0.4
2022-09-17T15:43:36.128Z,1.3
2022-09-17T15:48:36.766Z,1.3
2022-09-17T15:53:37.400Z,1.1
2022-09-17T15:58:36.591Z,1.1
2022-09-17T16:03:36.373Z,0.9
2022-09-17T16:08:37.175Z,0.9
2022-09-17T16:13:36.398Z,1.3
2022-09-17T16:18:36.688Z,1.3
2022-09-17T16:23:37.080Z,1.4
2022-09-17T16:28:36.324Z,1.4
2022-09-17T16:33:36.662Z,1.6
2022-09-17T16:38:37.042Z,1.6
2022-09-17T16:43:37.328Z,1.6
2022-09-17T16:48:36.430Z,1.6
2022-09-17T16:53:36.864Z,1.8
2022-09-17T16:58:37.207Z,1.8
2022-09-17T17:03:36.358Z,1.9
2022-09-17T17:08:36.531Z,1.9
2022-09-17T17:13:36.707Z,1.9
2022-09-17T17:18:36.891Z,1.9
2022-09-17T17:23:37.167Z,1.7
2022-09-17T17:28:36.352Z,1.7
2022-09-17T17:33:36.636Z,1.3
2022-09-17T17:38:36.773Z,1.3
2022-09-17T17:43:36.985Z,1
2022-09-17T17:48:36.639Z,1
2022-09-17T17:53:36.759Z,1.2
2022-09-17T17:58:36.953Z,1.2
2022-09-17T18:03:37.117Z,0.4
2022-09-17T18:08:36.365Z,0.4
2022-09-17T18:13:36.819Z,0.8
2022-09-17T18:18:39.738Z,0.8
2022-09-17T18:23:36.491Z,0.4
2022-09-17T18:28:36.559Z,0.4
2022-09-17T18:33:36.701Z,0.4
2022-09-17T18:38:37.035Z,0.4
2022-09-17T18:43:36.215Z,0.3
2022-09-17T18:48:36.820Z,0.3
2022-09-17T18:53:37.044Z,0.4
2022-09-17T18:58:36.372Z,0.4
2022-09-17T19:03:36.683Z,0.4
2022-09-17T19:08:36.903Z,0.4
2022-09-17T19:13:36.905Z,0.9
2022-09-17T19:18:36.968Z,0.9
2022-09-17T19:23:36.354Z,0.4
2022-09-17T19:28:36.507Z,0.4
2022-09-17T19:33:36.676Z,0.4
2022-09-17T19:38:36.818Z,0.4
2022-09-17T19:43:36.969Z,0.4
2022-09-17T19:48:37.107Z,0.4
2022-09-17T19:53:36.565Z,0.5
2022-09-17T19:58:36.868Z,0.5
2022-09-17T20:03:36.972Z,1
2022-09-17T20:08:42.587Z,1
2022-09-17T20:13:37.330Z,0.9
2022-09-17T20:18:36.514Z,0.9
2022-09-17T20:23:36.736Z,1.2
2022-09-17T20:28:36.988Z,1.2
2022-09-17T20:33:37.027Z,1.3
2022-09-17T20:39:10.744Z,1.3
2022-09-17T20:43:36.434Z,0.9
2022-09-17T20:48:36.535Z,0.9
2022-09-17T20:53:36.681Z,0.9
2022-09-17T20:58:36.782Z,0.9
2022-09-17T21:03:37.026Z,0.9
2022-09-17T21:08:36.578Z,0.9
2022-09-17T21:13:37.334Z,1.3
2022-09-17T21:18:39.563Z,1.3
2022-09-17T21:23:37.095Z,1
2022-09-17T21:28:37.231Z,1
2022-09-17T21:33:36.767Z,1.3
2022-09-17T21:38:37.092Z,1.3
2022-09-17T21:43:36.720Z,1.3
2022-09-17T21:48:37.166Z,1.3
2022-09-17T21:53:36.376Z,1.3
2022-09-17T21:58:36.880Z,1.3
2022-09-17T22:03:37.283Z,1.3
2022-09-17T22:08:36.506Z,1.3
2022-09-17T22:13:36.862Z,0.9
2022-09-17T22:18:37.354Z,0.9
2022-09-17T22:23:36.702Z,1.3
2022-09-17T22:28:36.728Z,1.3
2022-09-17T22:33:37.107Z,1.3
2022-09-17T22:38:37.259Z,1.3
2022-09-17T22:43:36.440Z,1
2022-09-17T22:48:36.729Z,1
2022-09-17T22:53:37.117Z,0.9
2022-09-17T22:58:36.588Z,0.9
2022-09-17T23:03:36.833Z,0.9
2022-09-17T23:08:37.106Z,0.9
2022-09-17T23:13:36.394Z,0.9
2022-09-17T23:18:36.469Z,0.9
2022-09-17T23:23:36.513Z,1.3
2022-09-17T23:28:36.622Z,1.3
2022-09-17T23:33:36.682Z,1.3
2022-09-17T23:38:36.813Z,1.3
2022-09-17T23:43:36.902Z,1
2022-09-17T23:48:36.885Z,1
2022-09-17T23:53:36.527Z,0.9
2022-09-17T23:58:37.069Z,0.9
